sensor_id;sensor_type;location;lat;lon;timestamp;pressure;altitude;pressure_sealevel;temperature;humidity
59419;BME280;45224;50.904;6.038;2023-07-13T00:00:53;99773.44;;;18.29;53.06
59419;BME280;45224;50.904;6.038;2023-07-13T00:02:24;99764.94;;;18.22;53.11
59419;BME280;45224;50.904;6.038;2023-07-13T00:03:57;99765.72;;;18.24;52.96
59419;BME280;45224;50.904;6.038;2023-07-13T00:05:28;99773.53;;;18.26;52.93
59419;BME280;45224;50.904;6.038;2023-07-13T00:07:02;99775.34;;;18.24;53.11
59419;BME280;45224;50.904;6.038;2023-07-13T00:08:33;99775.34;;;18.24;53.17
59419;BME280;45224;50.904;6.038;2023-07-13T00:10:04;99768.41;;;18.23;53.42
59419;BME280;45224;50.904;6.038;2023-07-13T00:11:35;99769.59;;;18.13;53.29
59419;BME280;45224;50.904;6.038;2023-07-13T00:13:05;99772.50;;;18.03;54.21
59419;BME280;45224;50.904;6.038;2023-07-13T00:14:36;99783.28;;;17.94;54.90
59419;BME280;45224;50.904;6.038;2023-07-13T00:16:07;99788.38;;;17.97;54.91
59419;BME280;45224;50.904;6.038;2023-07-13T00:17:38;99777.03;;;17.98;54.60
59419;BME280;45224;50.904;6.038;2023-07-13T00:19:10;99778.75;;;17.99;54.70
59419;BME280;45224;50.904;6.038;2023-07-13T00:20:41;99783.28;;;17.94;54.59
59419;BME280;45224;50.904;6.038;2023-07-13T00:22:14;99788.19;;;18.03;54.87
59419;BME280;45224;50.904;6.038;2023-07-13T00:23:44;99785.50;;;17.77;56.42
59419;BME280;45224;50.904;6.038;2023-07-13T00:25:15;99794.00;;;17.83;55.33
59419;BME280;45224;50.904;6.038;2023-07-13T00:26:46;99775.59;;;17.88;55.42
59419;BME280;45224;50.904;6.038;2023-07-13T00:28:16;99769.81;;;17.77;56.39
59419;BME280;45224;50.904;6.038;2023-07-13T00:29:48;99771.66;;;17.73;56.11
59419;BME280;45224;50.904;6.038;2023-07-13T00:31:18;99784.44;;;17.82;55.97
59419;BME280;45224;50.904;6.038;2023-07-13T00:32:51;99777.59;;;17.78;56.27
59419;BME280;45224;50.904;6.038;2023-07-13T00:34:21;99781.28;;;17.71;56.76
59419;BME280;45224;50.904;6.038;2023-07-13T00:35:54;99782.00;;;17.76;56.36
59419;BME280;45224;50.904;6.038;2023-07-13T00:37:25;99776.81;;;17.75;56.23
59419;BME280;45224;50.904;6.038;2023-07-13T00:38:55;99778.53;;;17.76;56.62
59419;BME280;45224;50.904;6.038;2023-07-13T00:40:25;99773.41;;;17.73;56.80
59419;BME280;45224;50.904;6.038;2023-07-13T00:41:56;99773.34;;;17.74;56.47
59419;BME280;45224;50.904;6.038;2023-07-13T00:43:27;99775.31;;;17.67;56.66
59419;BME280;45224;50.904;6.038;2023-07-13T00:46:33;99777.78;;;17.72;57.01
59419;BME280;45224;50.904;6.038;2023-07-13T00:48:03;99770.13;;;17.66;57.14
59419;BME280;45224;50.904;6.038;2023-07-13T00:49:35;99772.66;;;17.69;56.74
59419;BME280;45224;50.904;6.038;2023-07-13T00:51:06;99773.88;;;17.57;57.53
59419;BME280;45224;50.904;6.038;2023-07-13T00:52:40;99784.13;;;17.63;57.20
59419;BME280;45224;50.904;6.038;2023-07-13T00:54:15;99778.13;;;17.60;57.67
59419;BME280;45224;50.904;6.038;2023-07-13T00:55:50;99761.81;;;17.51;57.86
59419;BME280;45224;50.904;6.038;2023-07-13T00:57:21;99770.50;;;17.52;57.61
59419;BME280;45224;50.904;6.038;2023-07-13T00:58:52;99775.72;;;17.52;57.69
59419;BME280;45224;50.904;6.038;2023-07-13T01:00:25;99777.38;;;17.56;57.64
59419;BME280;45224;50.904;6.038;2023-07-13T01:01:56;99769.56;;;17.55;57.69
59419;BME280;45224;50.904;6.038;2023-07-13T01:03:26;99766.19;;;17.51;57.75
59419;BME280;45224;50.904;6.038;2023-07-13T01:04:58;99767.19;;;17.47;58.01
59419;BME280;45224;50.904;6.038;2023-07-13T01:06:28;99768.06;;;17.47;58.00
59419;BME280;45224;50.904;6.038;2023-07-13T01:08:01;99774.22;;;17.45;58.10
59419;BME280;45224;50.904;6.038;2023-07-13T01:09:32;99762.03;;;17.44;57.84
59419;BME280;45224;50.904;6.038;2023-07-13T01:11:02;99760.25;;;17.46;57.77
59419;BME280;45224;50.904;6.038;2023-07-13T01:12:33;99769.03;;;17.43;57.96
59419;BME280;45224;50.904;6.038;2023-07-13T01:14:04;99769.03;;;17.43;57.66
59419;BME280;45224;50.904;6.038;2023-07-13T01:15:43;99770.72;;;17.46;58.16
59419;BME280;45224;50.904;6.038;2023-07-13T01:17:16;99767.63;;;17.31;58.67
59419;BME280;45224;50.904;6.038;2023-07-13T01:18:47;99765.91;;;17.30;58.42
59419;BME280;45224;50.904;6.038;2023-07-13T01:20:17;99767.72;;;17.28;58.41
59419;BME280;45224;50.904;6.038;2023-07-13T01:21:52;99759.75;;;17.33;58.20
59419;BME280;45224;50.904;6.038;2023-07-13T01:23:23;99757.09;;;17.34;57.95
59419;BME280;45224;50.904;6.038;2023-07-13T01:24:54;99754.72;;;17.25;58.44
59419;BME280;45224;50.904;6.038;2023-07-13T01:26:25;99759.97;;;17.25;58.37
59419;BME280;45224;50.904;6.038;2023-07-13T01:27:56;99759.84;;;17.30;58.24
59419;BME280;45224;50.904;6.038;2023-07-13T01:29:26;99754.81;;;17.22;58.46
59419;BME280;45224;50.904;6.038;2023-07-13T01:30:58;99757.34;;;17.25;58.53
59419;BME280;45224;50.904;6.038;2023-07-13T01:32:29;99758.50;;;17.15;58.83
59419;BME280;45224;50.904;6.038;2023-07-13T01:34:01;99768.19;;;17.10;59.33
59419;BME280;45224;50.904;6.038;2023-07-13T01:35:31;99769.13;;;17.09;59.26
59419;BME280;45224;50.904;6.038;2023-07-13T01:37:03;99771.47;;;17.18;58.91
59419;BME280;45224;50.904;6.038;2023-07-13T01:38:35;99756.66;;;17.19;58.65
59419;BME280;45224;50.904;6.038;2023-07-13T01:40:06;99755.69;;;17.21;58.70
59419;BME280;45224;50.904;6.038;2023-07-13T01:41:38;99756.59;;;17.22;58.64
59419;BME280;45224;50.904;6.038;2023-07-13T01:43:09;99750.84;;;17.09;59.15
59419;BME280;45224;50.904;6.038;2023-07-13T01:44:40;99748.94;;;17.14;59.19
59419;BME280;45224;50.904;6.038;2023-07-13T01:46:11;99761.88;;;17.19;58.89
59419;BME280;45224;50.904;6.038;2023-07-13T01:47:42;99762.91;;;17.13;59.38
59419;BME280;45224;50.904;6.038;2023-07-13T01:49:12;99750.84;;;17.09;59.44
59419;BME280;45224;50.904;6.038;2023-07-13T01:50:43;99763.06;;;17.07;59.73
59419;BME280;45224;50.904;6.038;2023-07-13T01:52:13;99756.31;;;17.00;59.98
59419;BME280;45224;50.904;6.038;2023-07-13T01:53:44;99758.03;;;17.01;59.66
59419;BME280;45224;50.904;6.038;2023-07-13T01:55:15;99759.75;;;17.00;59.96
59419;BME280;45224;50.904;6.038;2023-07-13T01:56:45;99761.69;;;16.93;60.04
59419;BME280;45224;50.904;6.038;2023-07-13T01:58:16;99764.06;;;17.03;59.72
59419;BME280;45224;50.904;6.038;2023-07-13T01:59:46;99767.59;;;17.00;60.04
59419;BME280;45224;50.904;6.038;2023-07-13T02:01:17;99759.88;;;16.95;60.17
59419;BME280;45224;50.904;6.038;2023-07-13T02:02:48;99765.88;;;17.01;60.01
59419;BME280;45224;50.904;6.038;2023-07-13T02:04:18;99765.13;;;16.94;60.14
59419;BME280;45224;50.904;6.038;2023-07-13T02:05:48;99765.03;;;16.98;59.64
59419;BME280;45224;50.904;6.038;2023-07-13T02:07:19;99770.25;;;16.98;59.85
59419;BME280;45224;50.904;6.038;2023-07-13T02:08:49;99777.50;;;16.87;60.64
59419;BME280;45224;50.904;6.038;2023-07-13T02:10:20;99766.97;;;16.90;60.31
59419;BME280;45224;50.904;6.038;2023-07-13T02:11:50;99772.19;;;16.90;60.12
59419;BME280;45224;50.904;6.038;2023-07-13T02:13:21;99765.28;;;16.89;60.03
59419;BME280;45224;50.904;6.038;2023-07-13T02:14:52;99767.06;;;16.87;60.09
59419;BME280;45224;50.904;6.038;2023-07-13T02:16:22;99777.50;;;16.87;60.10
59419;BME280;45224;50.904;6.038;2023-07-13T02:17:53;99780.13;;;16.87;60.19
59419;BME280;45224;50.904;6.038;2023-07-13T02:19:23;99777.56;;;16.84;60.28
59419;BME280;45224;50.904;6.038;2023-07-13T02:20:54;99777.56;;;16.84;59.95
59419;BME280;45224;50.904;6.038;2023-07-13T02:22:24;99772.31;;;16.84;60.20
59419;BME280;45224;50.904;6.038;2023-07-13T02:23:55;99775.84;;;16.83;60.12
59419;BME280;45224;50.904;6.038;2023-07-13T02:25:25;99776.38;;;16.61;61.19
59419;BME280;45224;50.904;6.038;2023-07-13T02:26:57;99772.81;;;16.66;60.78
59419;BME280;45224;50.904;6.038;2023-07-13T02:28:27;99777.06;;;16.70;60.71
59419;BME280;45224;50.904;6.038;2023-07-13T02:29:57;99780.56;;;16.69;60.80
59419;BME280;45224;50.904;6.038;2023-07-13T02:31:28;99774.75;;;16.57;61.47
59419;BME280;45224;50.904;6.038;2023-07-13T02:32:58;99776.50;;;16.58;61.39
59419;BME280;45224;50.904;6.038;2023-07-13T02:34:29;99777.66;;;16.45;62.37
59419;BME280;45224;50.904;6.038;2023-07-13T02:36:00;99782.63;;;16.56;61.59
59419;BME280;45224;50.904;6.038;2023-07-13T02:37:30;99782.59;;;16.57;61.59
59419;BME280;45224;50.904;6.038;2023-07-13T02:39:03;99779.97;;;16.57;61.77
59419;BME280;45224;50.904;6.038;2023-07-13T02:40:34;99783.44;;;16.58;61.89
59419;BME280;45224;50.904;6.038;2023-07-13T02:42:06;99789.53;;;16.58;61.98
59419;BME280;45224;50.904;6.038;2023-07-13T02:43:37;99769.69;;;16.51;62.09
59419;BME280;45224;50.904;6.038;2023-07-13T02:45:08;99792.28;;;16.52;62.14
59419;BME280;45224;50.904;6.038;2023-07-13T02:46:39;99789.56;;;16.57;62.58
59419;BME280;45224;50.904;6.038;2023-07-13T02:48:09;99787.88;;;16.54;62.31
59419;BME280;45224;50.904;6.038;2023-07-13T02:49:40;99786.00;;;16.59;62.44
59419;BME280;45224;50.904;6.038;2023-07-13T02:51:11;99773.13;;;16.53;62.38
59419;BME280;45224;50.904;6.038;2023-07-13T02:52:41;99792.16;;;16.58;63.03
59419;BME280;45224;50.904;6.038;2023-07-13T02:54:12;99788.78;;;16.53;62.93
59419;BME280;45224;50.904;6.038;2023-07-13T02:55:44;99787.16;;;16.49;62.65
59419;BME280;45224;50.904;6.038;2023-07-13T02:57:17;99789.91;;;16.43;63.24
59419;BME280;45224;50.904;6.038;2023-07-13T02:58:48;99792.44;;;16.46;62.94
59419;BME280;45224;50.904;6.038;2023-07-13T03:00:18;99788.22;;;16.40;63.57
59419;BME280;45224;50.904;6.038;2023-07-13T03:01:49;99803.16;;;16.34;63.49
59419;BME280;45224;50.904;6.038;2023-07-13T03:03:19;99803.91;;;16.39;63.52
59419;BME280;45224;50.904;6.038;2023-07-13T03:04:51;99795.31;;;16.34;64.21
59419;BME280;45224;50.904;6.038;2023-07-13T03:06:22;99797.91;;;16.35;63.82
59419;BME280;45224;50.904;6.038;2023-07-13T03:07:57;99792.56;;;16.40;63.29
59419;BME280;45224;50.904;6.038;2023-07-13T03:09:28;99780.75;;;16.25;64.24
59419;BME280;45224;50.904;6.038;2023-07-13T03:12:32;99791.22;;;16.23;64.74
59419;BME280;45224;50.904;6.038;2023-07-13T03:14:03;99788.06;;;16.09;65.67
59419;BME280;45224;50.904;6.038;2023-07-13T03:15:38;99795.69;;;16.18;65.01
59419;BME280;45224;50.904;6.038;2023-07-13T03:17:08;99799.22;;;16.16;65.03
59419;BME280;45224;50.904;6.038;2023-07-13T03:18:43;99800.06;;;16.16;65.34
59419;BME280;45224;50.904;6.038;2023-07-13T03:20:16;99795.94;;;16.08;65.83
59419;BME280;45224;50.904;6.038;2023-07-13T03:21:46;99796.94;;;16.02;66.11
59419;BME280;45224;50.904;6.038;2023-07-13T03:23:17;99779.09;;;15.83;66.90
59419;BME280;45224;50.904;6.038;2023-07-13T03:24:48;99786.69;;;15.94;66.61
59419;BME280;45224;50.904;6.038;2023-07-13T03:26:19;99798.72;;;16.00;66.37
59419;BME280;45224;50.904;6.038;2023-07-13T03:27:50;99795.47;;;15.88;67.13
59419;BME280;45224;50.904;6.038;2023-07-13T03:29:21;99801.47;;;15.92;67.49
59419;BME280;45224;50.904;6.038;2023-07-13T03:31:20;99810.25;;;15.90;67.60
59419;BME280;45224;50.904;6.038;2023-07-13T03:32:49;99809.19;;;15.97;66.67
59419;BME280;45224;50.904;6.038;2023-07-13T03:34:22;99802.25;;;15.97;67.52
59419;BME280;45224;50.904;6.038;2023-07-13T03:35:53;99811.34;;;15.79;68.63
59419;BME280;45224;50.904;6.038;2023-07-13T03:37:23;99813.63;;;15.93;67.22
59419;BME280;45224;50.904;6.038;2023-07-13T03:38:57;99816.25;;;15.93;67.60
59419;BME280;45224;50.904;6.038;2023-07-13T03:40:31;99817.06;;;15.95;67.31
59419;BME280;45224;50.904;6.038;2023-07-13T03:42:02;99812.72;;;15.96;67.43
59419;BME280;45224;50.904;6.038;2023-07-13T03:43:32;99813.63;;;15.93;67.52
59419;BME280;45224;50.904;6.038;2023-07-13T03:45:03;99810.97;;;15.96;67.47
59419;BME280;45224;50.904;6.038;2023-07-13T03:46:36;99811.22;;;15.84;68.60
59419;BME280;45224;50.904;6.038;2023-07-13T03:48:07;99816.41;;;15.85;68.89
59419;BME280;45224;50.904;6.038;2023-07-13T03:49:37;99816.41;;;15.85;68.71
59419;BME280;45224;50.904;6.038;2023-07-13T03:51:08;99810.44;;;15.80;69.26
59419;BME280;45224;50.904;6.038;2023-07-13T03:52:39;99813.03;;;15.80;68.88
59419;BME280;45224;50.904;6.038;2023-07-13T03:54:09;99814.81;;;15.78;69.41
59419;BME280;45224;50.904;6.038;2023-07-13T03:55:41;99821.53;;;15.88;68.94
59419;BME280;45224;50.904;6.038;2023-07-13T03:57:11;99823.34;;;15.86;69.03
59419;BME280;45224;50.904;6.038;2023-07-13T03:58:44;99828.81;;;15.71;70.39
59419;BME280;45224;50.904;6.038;2023-07-13T04:00:20;99824.44;;;15.75;70.43
59419;BME280;45224;50.904;6.038;2023-07-13T04:01:50;99825.28;;;15.75;70.27
59419;BME280;45224;50.904;6.038;2023-07-13T04:03:21;99827.03;;;15.76;70.25
59419;BME280;45224;50.904;6.038;2023-07-13T04:04:52;99817.56;;;15.70;70.48
59419;BME280;45224;50.904;6.038;2023-07-13T04:06:30;99807.97;;;15.71;70.85
59419;BME280;45224;50.904;6.038;2023-07-13T04:08:09;99827.94;;;15.72;71.28
59419;BME280;45224;50.904;6.038;2023-07-13T04:09:40;99827.03;;;15.76;70.52
59419;BME280;45224;50.904;6.038;2023-07-13T04:11:10;99831.31;;;15.79;70.54
59419;BME280;45224;50.904;6.038;2023-07-13T04:12:42;99812.41;;;15.67;70.86
59419;BME280;45224;50.904;6.038;2023-07-13T04:14:13;99821.81;;;15.75;71.21
59419;BME280;45224;50.904;6.038;2023-07-13T04:15:43;99823.56;;;15.74;71.51
59419;BME280;45224;50.904;6.038;2023-07-13T04:17:14;99825.50;;;15.64;72.86
59419;BME280;45224;50.904;6.038;2023-07-13T04:18:46;99829.69;;;15.73;71.77
59419;BME280;45224;50.904;6.038;2023-07-13T04:20:17;99829.59;;;15.79;71.92
59419;BME280;45224;50.904;6.038;2023-07-13T04:21:47;99833.03;;;15.80;71.46
59419;BME280;45224;50.904;6.038;2023-07-13T04:23:18;99828.75;;;15.74;72.04
59419;BME280;45224;50.904;6.038;2023-07-13T04:24:49;99837.34;;;15.81;72.11
59419;BME280;45224;50.904;6.038;2023-07-13T04:26:20;99832.25;;;15.76;72.46
59419;BME280;45224;50.904;6.038;2023-07-13T04:27:53;99840.78;;;15.84;71.75
59419;BME280;45224;50.904;6.038;2023-07-13T04:29:24;99844.34;;;15.79;72.61
59419;BME280;45224;50.904;6.038;2023-07-13T04:30:55;99839.88;;;15.84;72.40
59419;BME280;45224;50.904;6.038;2023-07-13T04:32:25;99838.94;;;15.88;71.77
59419;BME280;45224;50.904;6.038;2023-07-13T04:33:56;99834.63;;;15.87;72.32
59419;BME280;45224;50.904;6.038;2023-07-13T04:35:26;99839.16;;;15.77;72.97
59419;BME280;45224;50.904;6.038;2023-07-13T04:36:57;99840.75;;;15.86;73.32
59419;BME280;45224;50.904;6.038;2023-07-13T04:38:29;99840.78;;;15.84;73.83
59419;BME280;45224;50.904;6.038;2023-07-13T04:40:00;99844.97;;;15.90;72.69
59419;BME280;45224;50.904;6.038;2023-07-13T04:41:31;99842.34;;;15.92;72.92
59419;BME280;45224;50.904;6.038;2023-07-13T04:43:01;99835.34;;;15.94;73.20
59419;BME280;45224;50.904;6.038;2023-07-13T04:44:32;99823.34;;;15.86;74.10
59419;BME280;45224;50.904;6.038;2023-07-13T04:46:08;99849.16;;;15.99;73.69
59419;BME280;45224;50.904;6.038;2023-07-13T04:47:40;99843.81;;;16.03;73.92
59419;BME280;45224;50.904;6.038;2023-07-13T04:49:11;99845.75;;;15.94;74.23
59419;BME280;45224;50.904;6.038;2023-07-13T04:50:41;99850.66;;;16.09;73.25
59419;BME280;45224;50.904;6.038;2023-07-13T04:52:13;99851.44;;;16.13;73.36
59419;BME280;45224;50.904;6.038;2023-07-13T04:53:44;99853.03;;;16.21;73.29
59419;BME280;45224;50.904;6.038;2023-07-13T04:55:14;99849.78;;;16.10;74.32
59419;BME280;45224;50.904;6.038;2023-07-13T04:56:45;99853.91;;;16.20;73.54
59419;BME280;45224;50.904;6.038;2023-07-13T04:58:16;99861.03;;;16.12;74.21
59419;BME280;45224;50.904;6.038;2023-07-13T04:59:46;99847.94;;;16.15;74.10
59419;BME280;45224;50.904;6.038;2023-07-13T05:01:17;99857.25;;;16.25;73.32
59419;BME280;45224;50.904;6.038;2023-07-13T05:02:47;99859.91;;;16.24;73.80
59419;BME280;45224;50.904;6.038;2023-07-13T05:04:18;99845.03;;;16.28;73.83
59419;BME280;45224;50.904;6.038;2023-07-13T05:05:58;99845.97;;;16.25;73.88
59419;BME280;45224;50.904;6.038;2023-07-13T05:07:29;99857.91;;;16.35;73.71
59419;BME280;45224;50.904;6.038;2023-07-13T05:09:00;99859.63;;;16.36;73.63
59419;BME280;45224;50.904;6.038;2023-07-13T05:10:30;99861.91;;;16.50;72.58
59419;BME280;45224;50.904;6.038;2023-07-13T05:12:01;99866.31;;;16.48;73.91
59419;BME280;45224;50.904;6.038;2023-07-13T05:13:31;99858.50;;;16.48;73.17
59419;BME280;45224;50.904;6.038;2023-07-13T05:15:03;99859.28;;;16.50;73.01
59419;BME280;45224;50.904;6.038;2023-07-13T05:16:33;99867.13;;;16.50;73.46
59419;BME280;45224;50.904;6.038;2023-07-13T05:18:04;99865.22;;;16.58;72.81
59419;BME280;45224;50.904;6.038;2023-07-13T05:19:35;99874.66;;;16.64;72.65
59419;BME280;45224;50.904;6.038;2023-07-13T05:21:08;99870.50;;;16.55;73.01
59419;BME280;45224;50.904;6.038;2023-07-13T05:22:39;99870.38;;;16.60;72.81
59419;BME280;45224;50.904;6.038;2023-07-13T05:24:10;99871.53;;;16.48;72.97
59419;BME280;45224;50.904;6.038;2023-07-13T05:25:40;99872.97;;;16.61;72.58
59419;BME280;45224;50.904;6.038;2023-07-13T05:27:11;99877.28;;;16.63;72.81
59419;BME280;45224;50.904;6.038;2023-07-13T05:28:42;99874.72;;;16.61;73.26
59419;BME280;45224;50.904;6.038;2023-07-13T05:30:13;99875.38;;;16.69;72.43
59419;BME280;45224;50.904;6.038;2023-07-13T05:31:43;99886.53;;;16.76;72.53
59419;BME280;45224;50.904;6.038;2023-07-13T05:33:14;99883.13;;;16.74;72.94
59419;BME280;45224;50.904;6.038;2023-07-13T05:34:44;99878.63;;;16.79;72.19
59419;BME280;45224;50.904;6.038;2023-07-13T05:36:15;99881.34;;;16.74;72.67
59419;BME280;45224;50.904;6.038;2023-07-13T05:37:45;99885.00;;;16.69;72.94
59419;BME280;45224;50.904;6.038;2023-07-13T05:39:16;99884.78;;;16.78;72.44
59419;BME280;45224;50.904;6.038;2023-07-13T05:40:47;99883.75;;;16.84;72.20
59419;BME280;45224;50.904;6.038;2023-07-13T05:42:18;99880.41;;;16.78;72.94
59419;BME280;45224;50.904;6.038;2023-07-13T05:43:48;99882.00;;;16.84;72.58
59419;BME280;45224;50.904;6.038;2023-07-13T05:45:19;99886.38;;;16.84;72.43
59419;BME280;45224;50.904;6.038;2023-07-13T05:46:49;99883.94;;;16.76;73.39
59419;BME280;45224;50.904;6.038;2023-07-13T05:48:20;99890.66;;;16.88;72.63
59419;BME280;45224;50.904;6.038;2023-07-13T05:49:50;99897.53;;;16.90;73.25
59419;BME280;45224;50.904;6.038;2023-07-13T05:51:21;99895.22;;;16.78;73.70
59419;BME280;45224;50.904;6.038;2023-07-13T05:52:51;99897.75;;;16.81;73.48
59419;BME280;45224;50.904;6.038;2023-07-13T05:54:22;99892.53;;;16.81;73.69
59419;BME280;45224;50.904;6.038;2023-07-13T05:55:54;99893.19;;;16.91;73.55
59419;BME280;45224;50.904;6.038;2023-07-13T05:57:24;99899.19;;;16.94;73.10
59419;BME280;45224;50.904;6.038;2023-07-13T05:58:56;99901.75;;;16.97;73.29
59419;BME280;45224;50.904;6.038;2023-07-13T06:00:26;99897.53;;;16.90;73.87
59419;BME280;45224;50.904;6.038;2023-07-13T06:01:57;99897.47;;;16.93;74.10
59419;BME280;45224;50.904;6.038;2023-07-13T06:03:27;99905.66;;;16.78;74.47
59419;BME280;45224;50.904;6.038;2023-07-13T06:04:58;99906.28;;;16.89;73.80
59419;BME280;45224;50.904;6.038;2023-07-13T06:06:28;99900.22;;;16.87;74.05
59419;BME280;45224;50.904;6.038;2023-07-13T06:07:59;99897.47;;;16.93;73.57
59419;BME280;45224;50.904;6.038;2023-07-13T06:09:30;99911.28;;;16.98;74.02
59419;BME280;45224;50.904;6.038;2023-07-13T06:11:06;99909.91;;;16.82;74.70
59419;BME280;45224;50.904;6.038;2023-07-13T06:12:37;99908.88;;;16.91;74.52
59419;BME280;45224;50.904;6.038;2023-07-13T06:14:07;99913.25;;;16.89;74.67
59419;BME280;45224;50.904;6.038;2023-07-13T06:15:38;99904.50;;;16.91;74.45
59419;BME280;45224;50.904;6.038;2023-07-13T06:17:08;99913.06;;;16.96;73.55
59419;BME280;45224;50.904;6.038;2023-07-13T06:18:39;99914.00;;;16.94;74.16
59419;BME280;45224;50.904;6.038;2023-07-13T06:20:10;99906.97;;;16.97;74.18
59419;BME280;45224;50.904;6.038;2023-07-13T06:21:41;99916.66;;;16.92;74.66
59419;BME280;45224;50.904;6.038;2023-07-13T06:23:11;99918.22;;;17.00;74.68
59419;BME280;45224;50.904;6.038;2023-07-13T06:24:41;99923.22;;;17.09;73.66
59419;BME280;45224;50.904;6.038;2023-07-13T06:26:12;99919.47;;;17.19;73.57
59419;BME280;45224;50.904;6.038;2023-07-13T06:27:43;99922.81;;;17.24;73.69
59419;BME280;45224;50.904;6.038;2023-07-13T06:29:13;99923.66;;;17.26;73.86
59419;BME280;45224;50.904;6.038;2023-07-13T06:30:44;99920.59;;;17.10;74.35
59419;BME280;45224;50.904;6.038;2023-07-13T06:32:14;99923.22;;;17.09;75.18
59419;BME280;45224;50.904;6.038;2023-07-13T06:33:45;99931.72;;;17.17;74.91
59419;BME280;45224;50.904;6.038;2023-07-13T06:35:15;99931.00;;;17.12;74.85
59419;BME280;45224;50.904;6.038;2023-07-13T06:36:46;99930.31;;;17.04;75.12
59419;BME280;45224;50.904;6.038;2023-07-13T06:38:16;99931.88;;;17.11;75.04
59419;BME280;45224;50.904;6.038;2023-07-13T06:39:47;99922.31;;;17.10;75.11
59419;BME280;45224;50.904;6.038;2023-07-13T06:41:17;99935.94;;;17.23;74.56
59419;BME280;45224;50.904;6.038;2023-07-13T06:42:48;99935.94;;;17.23;74.50
59419;BME280;45224;50.904;6.038;2023-07-13T06:44:18;99934.09;;;17.28;75.08
59419;BME280;45224;50.904;6.038;2023-07-13T06:45:49;99931.66;;;17.20;75.32
59419;BME280;45224;50.904;6.038;2023-07-13T06:47:20;99940.44;;;17.16;75.42
59419;BME280;45224;50.904;6.038;2023-07-13T06:48:50;99936.88;;;17.20;75.35
59419;BME280;45224;50.904;6.038;2023-07-13T06:50:21;99949.03;;;17.21;75.30
59419;BME280;45224;50.904;6.038;2023-07-13T06:51:51;99943.84;;;17.20;75.10
59419;BME280;45224;50.904;6.038;2023-07-13T06:53:22;99945.31;;;17.31;74.73
59419;BME280;45224;50.904;6.038;2023-07-13T06:54:53;99948.00;;;17.28;75.45
59419;BME280;45224;50.904;6.038;2023-07-13T06:56:23;99952.56;;;17.20;75.83
59419;BME280;45224;50.904;6.038;2023-07-13T06:57:54;99944.78;;;17.17;75.90
59419;BME280;45224;50.904;6.038;2023-07-13T06:59:24;99955.84;;;17.28;75.44
59419;BME280;45224;50.904;6.038;2023-07-13T07:00:56;99947.88;;;17.33;75.30
59419;BME280;45224;50.904;6.038;2023-07-13T07:02:26;99957.72;;;17.23;76.39
59419;BME280;45224;50.904;6.038;2023-07-13T07:03:57;99954.03;;;17.30;75.89
59419;BME280;45224;50.904;6.038;2023-07-13T07:05:27;99955.81;;;17.30;76.47
59419;BME280;45224;50.904;6.038;2023-07-13T07:06:58;99947.84;;;17.34;75.78
59419;BME280;45224;50.904;6.038;2023-07-13T07:08:28;99954.66;;;17.40;75.94
59419;BME280;45224;50.904;6.038;2023-07-13T07:09:59;99946.59;;;17.49;75.63
59419;BME280;45224;50.904;6.038;2023-07-13T07:11:29;99960.34;;;17.56;75.50
59419;BME280;45224;50.904;6.038;2023-07-13T07:13:00;99951.63;;;17.57;75.35
59419;BME280;45224;50.904;6.038;2023-07-13T07:14:31;99962.31;;;17.48;75.99
59419;BME280;45224;50.904;6.038;2023-07-13T07:16:02;99955.19;;;17.53;75.84
59419;BME280;45224;50.904;6.038;2023-07-13T07:17:32;99955.25;;;17.51;75.97
59419;BME280;45224;50.904;6.038;2023-07-13T07:19:03;99961.53;;;17.44;76.00
59419;BME280;45224;50.904;6.038;2023-07-13T07:20:33;99967.53;;;17.48;76.20
59419;BME280;45224;50.904;6.038;2023-07-13T07:22:04;99965.72;;;17.50;76.26
59419;BME280;45224;50.904;6.038;2023-07-13T07:23:34;99963.78;;;17.58;76.69
59419;BME280;45224;50.904;6.038;2023-07-13T07:25:05;99967.13;;;17.63;76.00
59419;BME280;45224;50.904;6.038;2023-07-13T07:26:35;99968.63;;;17.74;76.41
59419;BME280;45224;50.904;6.038;2023-07-13T07:28:06;99965.88;;;17.78;75.37
59419;BME280;45224;50.904;6.038;2023-07-13T07:29:36;99969.06;;;17.91;74.75
59419;BME280;45224;50.904;6.038;2023-07-13T07:31:07;99969.78;;;17.96;74.78
59419;BME280;45224;50.904;6.038;2023-07-13T07:32:38;99971.41;;;18.00;74.33
59419;BME280;45224;50.904;6.038;2023-07-13T07:34:09;99973.84;;;18.06;74.37
59419;BME280;45224;50.904;6.038;2023-07-13T07:35:39;99973.63;;;18.14;74.21
59419;BME280;45224;50.904;6.038;2023-07-13T07:37:11;99978.81;;;18.16;73.57
59419;BME280;45224;50.904;6.038;2023-07-13T07:38:43;99968.19;;;18.22;73.03
59419;BME280;45224;50.904;6.038;2023-07-13T07:40:14;99972.59;;;18.20;73.22
59419;BME280;45224;50.904;6.038;2023-07-13T07:41:44;99970.06;;;18.18;73.29
59419;BME280;45224;50.904;6.038;2023-07-13T07:43:14;99966.56;;;18.18;73.16
59419;BME280;45224;50.904;6.038;2023-07-13T07:44:45;99969.81;;;18.26;72.74
59419;BME280;45224;50.904;6.038;2023-07-13T07:46:15;99973.13;;;18.31;72.51
59419;BME280;45224;50.904;6.038;2023-07-13T07:47:46;99972.06;;;18.38;72.25
59419;BME280;45224;50.904;6.038;2023-07-13T07:49:17;99980.69;;;18.42;72.19
59419;BME280;45224;50.904;6.038;2023-07-13T07:50:48;99971.81;;;18.48;71.57
59419;BME280;45224;50.904;6.038;2023-07-13T07:52:18;99978.56;;;18.55;71.55
59419;BME280;45224;50.904;6.038;2023-07-13T07:53:49;99982.00;;;18.57;71.20
59419;BME280;45224;50.904;6.038;2023-07-13T07:55:19;99982.25;;;18.49;71.39
59419;BME280;45224;50.904;6.038;2023-07-13T07:56:50;99977.00;;;18.49;71.38
59419;BME280;45224;50.904;6.038;2023-07-13T07:58:20;99982.00;;;18.57;70.92
59419;BME280;45224;50.904;6.038;2023-07-13T07:59:51;99978.47;;;18.58;70.97
59419;BME280;45224;50.904;6.038;2023-07-13T08:01:21;99984.16;;;18.72;69.98
59419;BME280;45224;50.904;6.038;2023-07-13T08:02:52;99985.19;;;18.67;69.95
59419;BME280;45224;50.904;6.038;2023-07-13T08:04:22;99981.09;;;18.58;69.87
59419;BME280;45224;50.904;6.038;2023-07-13T08:05:53;99982.88;;;18.57;69.37